Dades meteomassalio
Diari Summary for Diciembre 4, 2017 Units:  English    Metric   Both
« Previous Day
Next Day »
Diari Semanal Mensual Anual Personalitzat
  Maxima: Minima: Mijana:
Temperatura: TemperatureC °F -3.3 °F 3.2 °F
Rosada: DewpointC °F -7.1 °F -0.7 °F
Humitat: Humidity % 61 % 76 %
Velocitat del vent: WindSpeedKMH mph 0.0 mph 10.2 mph
Racha vent: WindSpeedGustKMH mph - -
Vent:- - WNW
Pressio: PressurehPa in 1034.4 in -
Pluja: 0.0 in    
Historical Graphs
 
 
Tabular Data for Diciembre 4, 2017
Time Temperature Dew Point Pressure Wind Wind Speed Wind Gust Humidity Rainfall Rate (Hourly) solar Conditions
TemperatureC °F DewpointC °F PressurehPa in Calm     Humidity % HourlyPrecipMM in SolarRadiationWatts/m^2 W/m2 Conditions
00:02 -2.8 °F -6.8 °F 1034.4 in West 16.7 mph 16.7 mph 74 % 0.0 in 0.0 W/m2 CLR
00:03 -2.8 °F -6.8 °F 1034.4 in West 13.0 mph 13.0 mph 74 % 0.0 in 0.0 W/m2 CLR
00:08 -2.8 °F -6.8 °F 1034.4 in WNW 11.1 mph 11.1 mph 74 % 0.0 in 0.0 W/m2 CLR
00:13 -2.8 °F -6.8 °F 1034.4 in West 13.0 mph 13.0 mph 74 % 0.0 in 0.0 W/m2 CLR
00:18 -2.8 °F -6.6 °F 1034.4 in WSW 16.7 mph 16.7 mph 75 % 0.0 in 0.0 W/m2 CLR
00:23 -2.8 °F -6.6 °F 1034.4 in West 13.0 mph 13.0 mph 75 % 0.0 in 0.0 W/m2 CLR
00:28 -2.8 °F -6.4 °F 1034.4 in West 11.1 mph 11.1 mph 76 % 0.0 in 0.0 W/m2 CLR
00:33 -2.8 °F -6.3 °F 1034.4 in West 13.0 mph 13.0 mph 77 % 0.0 in 0.0 W/m2 CLR
00:38 -2.8 °F -6.3 °F 1034.4 in WSW 7.4 mph 7.4 mph 77 % 0.0 in 0.0 W/m2 CLR
00:43 -3.3 °F -7.1 °F 1034.4 in WSW 8.0 mph 8.0 mph 75 % 0.0 in 0.0 W/m2 CLR
00:48 -3.3 °F -6.9 °F 1034.4 in WSW 13.0 mph 13.0 mph 76 % 0.0 in 0.0 W/m2 CLR
00:53 -3.3 °F -6.3 °F 1034.4 in West 18.5 mph 18.5 mph 80 % 0.0 in 0.0 W/m2 CLR
00:58 -3.3 °F -6.3 °F 1034.4 in WNW 14.8 mph 14.8 mph 80 % 0.0 in 0.0 W/m2 CLR
01:03 -2.8 °F -6.1 °F 1034.8 in WNW 14.8 mph 14.8 mph 78 % 0.0 in 0.0 W/m2 CLR
01:08 -2.8 °F -6.3 °F 1034.8 in West 9.3 mph 9.3 mph 77 % 0.0 in 0.0 W/m2 CLR
01:13 -3.3 °F -6.9 °F 1034.8 in West 5.6 mph   76 % 0.0 in 0.0 W/m2 CLR
01:18 -3.3 °F -7.1 °F 1034.4 in Calm     75 % 0.0 in 0.0 W/m2 CLR
01:19 -3.3 °F -6.9 °F 1034.4 in Calm     76 % 0.0 in 0.0 W/m2 CLR
01:24 -3.3 °F -6.6 °F 1034.4 in Calm     78 % 0.0 in 0.0 W/m2 CLR
01:29 -3.3 °F -6.4 °F 1034.4 in Calm     79 % 0.0 in 0.0 W/m2 CLR
01:34 -3.3 °F -6.3 °F 1034.8 in Calm     80 % 0.0 in 0.0 W/m2 CLR
01:39 -3.3 °F -6.4 °F 1034.8 in Calm     79 % 0.0 in 0.0 W/m2 CLR
01:44 -3.3 °F -6.6 °F 1034.8 in Calm     78 % 0.0 in 0.0 W/m2 CLR
01:49 -3.3 °F -6.3 °F 1034.8 in Calm     80 % 0.0 in 0.0 W/m2 CLR
01:54 -3.3 °F -5.8 °F 1034.8 in West 9.7 mph 9.7 mph 83 % 0.0 in 0.0 W/m2 CLR
01:59 -3.3 °F -5.9 °F 1034.8 in West 5.6 mph 5.6 mph 82 % 0.0 in 0.0 W/m2 CLR
02:04 -3.3 °F -5.9 °F 1034.8 in West 11.1 mph 11.1 mph 82 % 0.0 in 0.0 W/m2 CLR
02:09 -3.3 °F -6.1 °F 1034.8 in West 14.8 mph 14.8 mph 81 % 0.0 in 0.0 W/m2 CLR
02:14 -3.3 °F -6.3 °F 1034.8 in WNW 9.3 mph 9.3 mph 80 % 0.0 in 0.0 W/m2 CLR
02:19 -2.8 °F -5.9 °F 1034.8 in West 7.4 mph 7.4 mph 79 % 0.0 in 0.0 W/m2 CLR
02:24 -2.8 °F -5.9 °F 1034.8 in West 5.6 mph 5.6 mph 79 % 0.0 in 0.0 W/m2 CLR
02:29 -2.8 °F -5.9 °F 1034.8 in West 3.7 mph   79 % 0.0 in 0.0 W/m2 CLR
02:34 -2.8 °F -6.1 °F 1034.8 in Calm     78 % 0.0 in 0.0 W/m2 CLR
02:39 -2.8 °F -5.7 °F 1034.8 in Calm     80 % 0.0 in 0.0 W/m2 CLR
02:44 -2.8 °F -5.7 °F 1034.8 in Calm     80 % 0.0 in 0.0 W/m2 CLR
02:49 -2.8 °F -5.4 °F 1034.8 in WNW 7.4 mph 7.4 mph 82 % 0.0 in 0.0 W/m2 CLR
02:54 -3.3 °F -6.3 °F 1034.8 in WNW 8.0 mph 8.0 mph 80 % 0.0 in 0.0 W/m2 CLR
02:59 -3.3 °F -6.3 °F 1034.8 in West 5.6 mph 5.6 mph 80 % 0.0 in 0.0 W/m2 CLR
03:04 -3.3 °F -6.4 °F 1034.8 in Calm     79 % 0.0 in 0.0 W/m2 CLR
03:09 -3.3 °F -6.4 °F 1034.8 in Calm     79 % 0.0 in 0.0 W/m2 CLR
03:14 -3.3 °F -6.3 °F 1034.8 in Calm     80 % 0.0 in 0.0 W/m2 CLR
03:19 -3.3 °F -6.3 °F 1035.1 in Calm     80 % 0.0 in 0.0 W/m2 CLR
03:24 -3.3 °F -6.4 °F 1034.8 in Calm     79 % 0.0 in 0.0 W/m2 CLR
03:29 -2.8 °F -5.7 °F 1034.8 in Calm   1.3 mph 80 % 0.0 in 0.0 W/m2 CLR
03:34 -2.8 °F -5.6 °F 1034.8 in Calm     81 % 0.0 in 0.0 W/m2 CLR
03:39 -2.8 °F -5.6 °F 1034.8 in WNW 7.4 mph 7.4 mph 81 % 0.0 in 0.0 W/m2 CLR
03:44 -2.2 °F -5.1 °F 1034.8 in WNW 13.0 mph 13.0 mph 81 % 0.0 in 0.0 W/m2 CLR
03:49 -2.2 °F -5.2 °F 1034.8 in West 13.0 mph 13.0 mph 80 % 0.0 in 0.0 W/m2 CLR
03:54 -2.2 °F -5.2 °F 1034.8 in NW 13.0 mph 13.0 mph 80 % 0.0 in 0.0 W/m2 CLR
03:59 -2.2 °F -5.2 °F 1034.8 in NNW 14.5 mph 14.5 mph 80 % 0.0 in 0.0 W/m2 CLR
04:04 -2.2 °F -5.2 °F 1034.8 in NW 12.9 mph 12.9 mph 80 % 0.0 in 0.0 W/m2 CLR
04:09 -1.7 °F -4.7 °F 1034.8 in WNW 18.5 mph 18.5 mph 80 % 0.0 in 0.0 W/m2 CLR
04:16 -1.7 °F -4.7 °F 1034.8 in WNW 11.1 mph 11.1 mph 80 % 0.0 in 0.0 W/m2 CLR
04:19 -1.7 °F -4.7 °F 1034.8 in NW 13.0 mph 13.0 mph 80 % 0.0 in 0.0 W/m2 CLR
04:21 -1.7 °F -4.7 °F 1034.8 in NW 18.5 mph 18.5 mph 80 % 0.0 in 0.0 W/m2 CLR
04:22 -1.7 °F -4.7 °F 1034.8 in NW 18.5 mph 18.5 mph 80 % 0.0 in 0.0 W/m2 CLR
04:23 -1.7 °F -4.7 °F 1034.8 in WNW 18.5 mph 18.5 mph 80 % 0.0 in 0.0 W/m2 CLR
04:27 -1.1 °F -4.1 °F 1034.8 in WNW 13.0 mph 13.0 mph 80 % 0.0 in 0.0 W/m2 CLR
04:29 -0.6 °F -3.6 °F 1034.8 in WNW 14.8 mph 14.8 mph 80 % 0.0 in 0.0 W/m2 CLR
04:32 0.0 °F -3.1 °F 1034.8 in WNW 14.8 mph 14.8 mph 80 % 0.0 in 0.0 W/m2 CLR
04:37 0.6 °F -2.5 °F 1034.8 in Calm     80 % 0.0 in 0.0 W/m2 CLR
04:39 0.6 °F -2.5 °F 1034.8 in WNW 11.3 mph 11.3 mph 80 % 0.0 in 0.0 W/m2 CLR
04:42 1.1 °F -1.8 °F 1034.8 in West 16.7 mph 16.7 mph 81 % 0.0 in 0.0 W/m2 CLR
04:47 2.2 °F -0.7 °F 1035.1 in NW 14.8 mph 14.8 mph 81 % 0.0 in 0.0 W/m2 CLR
04:52 3.3 °F 0.2 °F 1035.1 in WNW 14.8 mph 14.8 mph 80 % 0.0 in 0.0 W/m2 CLR
04:57 4.4 °F 1.3 °F 1035.1 in WNW 16.7 mph 16.7 mph 80 % 0.0 in 0.0 W/m2 CLR
05:02 4.4 °F 1.3 °F 1035.1 in NW 18.5 mph 18.5 mph 80 % 0.0 in 0.0 W/m2 CLR
05:07 5.0 °F 1.8 °F 1035.1 in WNW 22.2 mph 22.2 mph 80 % 0.0 in 0.0 W/m2 CLR
05:12 5.0 °F 1.8 °F 1035.1 in West 18.5 mph 18.5 mph 80 % 0.0 in 0.0 W/m2 CLR
05:17 5.6 °F 2.4 °F 1035.1 in West 14.8 mph 14.8 mph 80 % 0.0 in 0.0 W/m2 CLR
05:22 5.6 °F 2.4 °F 1035.1 in NW 17.7 mph 17.7 mph 80 % 0.0 in 0.0 W/m2 CLR
05:27 5.0 °F 1.8 °F 1034.8 in WNW 16.1 mph 16.1 mph 80 % 0.0 in 0.0 W/m2 CLR
05:32 5.6 °F 2.4 °F 1035.1 in WNW 17.7 mph 17.7 mph 80 % 0.0 in 0.0 W/m2 CLR
05:37 5.6 °F 2.4 °F 1035.1 in NW 14.8 mph 14.8 mph 80 % 0.0 in 0.0 W/m2 CLR
05:42 5.6 °F 2.4 °F 1035.1 in WNW 14.8 mph 14.8 mph 80 % 0.0 in 0.0 W/m2 CLR
05:47 5.6 °F 2.4 °F 1035.1 in WNW 9.3 mph 9.3 mph 80 % 0.0 in 0.0 W/m2 CLR
05:52 5.6 °F 2.6 °F 1035.1 in WNW 16.7 mph 16.7 mph 81 % 0.0 in 0.0 W/m2 CLR
05:57 5.0 °F 2.0 °F 1035.4 in WNW 13.0 mph 13.0 mph 81 % 0.0 in 0.0 W/m2 CLR
06:02 5.0 °F 2.0 °F 1035.4 in NW 17.7 mph 17.7 mph 81 % 0.0 in 0.0 W/m2 CLR
06:03 5.0 °F 2.0 °F 1035.4 in WNW 18.5 mph 18.5 mph 81 % 0.0 in 0.0 W/m2 CLR
06:08 5.0 °F 2.0 °F 1035.4 in NW 14.8 mph 14.8 mph 81 % 0.0 in 0.0 W/m2 CLR
06:13 5.0 °F 2.0 °F 1035.4 in NW 13.0 mph 13.0 mph 81 % 0.0 in 0.0 W/m2 CLR
06:18 5.0 °F 2.0 °F 1035.4 in NNW 14.8 mph 14.8 mph 81 % 0.0 in 0.0 W/m2 CLR
06:23 5.0 °F 2.0 °F 1035.4 in NW 9.3 mph 9.3 mph 81 % 0.0 in 0.0 W/m2 CLR
06:28 5.0 °F 2.2 °F 1035.4 in WNW 11.3 mph 11.3 mph 82 % 0.0 in 0.0 W/m2 CLR
06:29 5.0 °F 2.2 °F 1035.4 in WNW 11.3 mph 11.3 mph 82 % 0.0 in 0.0 W/m2 CLR
06:34 5.0 °F 2.0 °F 1035.4 in NW 13.0 mph 13.0 mph 81 % 0.0 in 0.0 W/m2 CLR
06:39 5.0 °F 2.0 °F 1035.8 in NW 13.0 mph 13.0 mph 81 % 0.0 in 0.0 W/m2 CLR
06:44 5.0 °F 2.0 °F 1035.8 in NNW 11.1 mph 11.1 mph 81 % 0.0 in 0.0 W/m2 CLR
06:49 5.0 °F 2.0 °F 1035.8 in NW 7.4 mph 7.4 mph 81 % 0.0 in 0.0 W/m2 CLR
06:54 5.0 °F 2.0 °F 1035.8 in NW 9.3 mph 9.3 mph 81 % 0.0 in 0.0 W/m2 CLR
06:59 5.0 °F 2.0 °F 1035.8 in NW 7.4 mph 7.4 mph 81 % 0.0 in 0.0 W/m2 CLR
07:04 5.0 °F 2.0 °F 1035.8 in Calm     81 % 0.0 in 0.0 W/m2 CLR
07:09 5.0 °F 2.0 °F 1035.8 in WNW 9.3 mph 9.3 mph 81 % 0.0 in 0.0 W/m2 CLR
07:14 5.0 °F 2.0 °F 1035.8 in NW 11.1 mph 11.1 mph 81 % 0.0 in 0.0 W/m2 CLR
07:19 4.4 °F 1.4 °F 1036.1 in WNW 5.6 mph 5.6 mph 81 % 0.0 in 0.0 W/m2 CLR
07:24 4.4 °F 1.4 °F 1036.1 in WNW 7.4 mph 7.4 mph 81 % 0.0 in 0.0 W/m2 CLR
07:29 4.4 °F 1.4 °F 1036.1 in WNW 8.0 mph 8.0 mph 81 % 0.0 in 0.0 W/m2 CLR
07:34 4.4 °F 1.4 °F 1036.1 in WNW 9.3 mph 9.3 mph 81 % 0.0 in 0.0 W/m2 CLR
07:39 4.4 °F 1.4 °F 1036.1 in WNW 13.0 mph 13.0 mph 81 % 0.0 in 0.0 W/m2 CLR
07:44 4.4 °F 1.4 °F 1036.1 in NW 11.1 mph 11.1 mph 81 % 0.0 in 0.0 W/m2 CLR
07:49 4.4 °F 1.4 °F 1036.1 in WNW 14.8 mph 14.8 mph 81 % 0.0 in 0.0 W/m2 CLR
07:54 4.4 °F 1.4 °F 1036.1 in NW 12.9 mph 12.9 mph 81 % 0.0 in 0.0 W/m2 CLR
07:59 4.4 °F 1.4 °F 1036.5 in NW 14.8 mph 14.8 mph 81 % 0.0 in 0.0 W/m2 CLR
08:04 3.9 °F 1.1 °F 1036.5 in West 18.5 mph 18.5 mph 82 % 0.0 in 0.0 W/m2 OVC
08:09 3.9 °F 1.1 °F 1036.5 in WNW 7.4 mph   82 % 0.0 in 5.0 W/m2 OVC
08:14 3.3 °F 0.6 °F 1036.5 in WNW 12.9 mph 12.9 mph 82 % 0.0 in 5.0 W/m2 OVC
08:19 2.8 °F 0.2 °F 1036.5 in WNW 9.3 mph 9.3 mph 83 % 0.0 in 9.0 W/m2 BKN
08:24 2.2 °F -0.6 °F 1036.5 in WNW 9.7 mph 9.7 mph 82 % 0.0 in 12.0 W/m2 BKN
08:29 2.2 °F -0.6 °F 1036.8 in WNW 6.4 mph 6.4 mph 82 % 0.0 in 14.0 W/m2 BKN
08:34 1.7 °F -0.9 °F 1036.8 in Calm     83 % 0.0 in 16.0 W/m2 BKN
08:39 1.7 °F -0.9 °F 1036.8 in Calm     83 % 0.0 in 18.0 W/m2 BKN
08:44 1.7 °F -0.9 °F 1037.1 in Calm     83 % 0.0 in 26.0 W/m2 BKN
08:49 2.2 °F -0.4 °F 1037.1 in Calm     83 % 0.0 in 30.0 W/m2 BKN
08:54 2.2 °F -0.2 °F 1037.1 in NW 6.4 mph 6.4 mph 84 % 0.0 in 33.0 W/m2 BKN
08:59 2.8 °F 0.3 °F 1037.1 in Calm     84 % 0.0 in 37.0 W/m2 BKN
09:04 2.8 °F 0.2 °F 1037.1 in NW 11.1 mph 11.1 mph 83 % 0.0 in 39.0 W/m2 BKN
09:09 3.3 °F 0.7 °F 1037.1 in WNW 11.3 mph 11.3 mph 83 % 0.0 in 44.0 W/m2 BKN
09:14 3.9 °F 1.1 °F 1037.1 in NW 16.7 mph 16.7 mph 82 % 0.0 in 44.0 W/m2 BKN
09:19 4.4 °F 1.6 °F 1037.5 in NW 16.7 mph 16.7 mph 82 % 0.0 in 51.0 W/m2 SCT
09:24 5.0 °F 2.0 °F 1037.5 in WNW 11.1 mph 11.1 mph 81 % 0.0 in 60.0 W/m2 SCT
09:29 5.6 °F 2.6 °F 1037.5 in NW 11.1 mph 11.1 mph 81 % 0.0 in 72.0 W/m2 SCT
09:35 6.1 °F 2.9 °F 1037.5 in WNW 14.8 mph 14.8 mph 80 % 0.0 in 74.0 W/m2 FEW
09:40 6.1 °F 2.9 °F 1037.5 in WNW 11.1 mph 11.1 mph 80 % 0.0 in 77.0 W/m2 FEW
09:45 6.7 °F 3.3 °F 1037.5 in WNW 19.3 mph 19.3 mph 79 % 0.0 in 104.0 W/m2 FEW
09:50 6.7 °F 3.3 °F 1037.5 in NW 16.1 mph 16.1 mph 79 % 0.0 in 113.0 W/m2 CLR
09:55 7.2 °F 3.7 °F 1037.8 in NW 18.5 mph 18.5 mph 78 % 0.0 in 95.0 W/m2 CLR
10:00 7.2 °F 3.7 °F 1037.8 in WNW 20.4 mph 20.4 mph 78 % 0.0 in 102.0 W/m2 CLR
10:05 7.2 °F 3.7 °F 1037.8 in NNW 31.5 mph 31.5 mph 78 % 0.0 in 104.0 W/m2 CLR
10:10 7.2 °F 3.7 °F 1037.8 in NW 24.1 mph 24.1 mph 78 % 0.0 in 116.0 W/m2 CLR
10:15 7.2 °F 3.7 °F 1037.8 in NNW 18.5 mph 18.5 mph 78 % 0.0 in 113.0 W/m2 CLR
10:20 7.2 °F 3.7 °F 1037.8 in NW 24.1 mph 24.1 mph 78 % 0.0 in 104.0 W/m2 CLR
10:25 7.8 °F 4.0 °F 1037.8 in WNW 22.2 mph 22.2 mph 77 % 0.0 in 132.0 W/m2 CLR
10:30 7.8 °F 4.0 °F 1037.8 in WNW 24.1 mph 24.1 mph 77 % 0.0 in 118.0 W/m2 CLR
10:35 7.8 °F 4.0 °F 1038.1 in NW 11.1 mph 11.1 mph 77 % 0.0 in 130.0 W/m2 CLR
10:40 7.8 °F 3.8 °F 1038.1 in NNW 22.2 mph 22.2 mph 76 % 0.0 in 144.0 W/m2 CLR
10:45 8.3 °F 4.3 °F 1038.1 in WNW 9.3 mph 9.3 mph 76 % 0.0 in 153.0 W/m2 CLR
10:50 8.3 °F 4.2 °F 1038.1 in WNW 16.7 mph 16.7 mph 75 % 0.0 in 190.0 W/m2 CLR
11:05 8.3 °F 3.8 °F 1038.1 in NW 18.5 mph 18.5 mph 73 % 0.0 in 163.0 W/m2 CLR
11:10 8.9 °F 4.3 °F 1038.5 in North 27.8 mph 27.8 mph 73 % 0.0 in 113.0 W/m2 CLR
11:15 8.3 °F 3.8 °F 1038.5 in NW 20.9 mph 20.9 mph 73 % 0.0 in 83.0 W/m2 CLR
11:20 8.3 °F 3.8 °F 1038.5 in NW 24.1 mph 24.1 mph 73 % 0.0 in 114.0 W/m2 CLR
11:25 8.3 °F 3.9 °F 1038.5 in NW 25.9 mph 25.9 mph 74 % 0.0 in 114.0 W/m2 CLR
11:30 8.3 °F 3.8 °F 1038.5 in NW 22.2 mph 22.2 mph 73 % 0.0 in 128.0 W/m2 CLR
11:35 8.3 °F 3.8 °F 1038.5 in NW 22.2 mph 22.2 mph 73 % 0.0 in 125.0 W/m2 CLR
11:40 8.3 °F 3.8 °F 1038.5 in NW 22.2 mph 22.2 mph 73 % 0.0 in 142.0 W/m2 CLR
11:45 8.3 °F 3.8 °F 1038.5 in NW 13.0 mph 13.0 mph 73 % 0.0 in 144.0 W/m2 CLR
11:50 8.9 °F 4.1 °F 1038.1 in NW 22.5 mph 22.5 mph 72 % 0.0 in 192.0 W/m2 CLR
11:55 8.9 °F 3.9 °F 1038.1 in NNW 22.2 mph 22.2 mph 71 % 0.0 in 200.0 W/m2 CLR
12:00 9.4 °F 4.4 °F 1038.1 in NW 27.8 mph 27.8 mph 71 % 0.0 in 200.0 W/m2 CLR
12:05 9.4 °F 4.2 °F 1038.1 in NNW 22.2 mph 22.2 mph 70 % 0.0 in 190.0 W/m2 CLR
12:10 9.4 °F 4.1 °F 1038.1 in NW 16.7 mph 16.7 mph 69 % 0.0 in 206.0 W/m2 CLR
12:15 9.4 °F 4.1 °F 1038.1 in NW 25.9 mph 25.9 mph 69 % 0.0 in 223.0 W/m2 CLR
12:20 9.4 °F 4.2 °F 1038.1 in NW 24.1 mph 24.1 mph 70 % 0.0 in 207.0 W/m2 CLR
12:25 9.4 °F 4.1 °F 1038.1 in North 20.4 mph 20.4 mph 69 % 0.0 in 218.0 W/m2 CLR
12:30 10.0 °F 4.6 °F 1037.8 in NNW 22.2 mph 22.2 mph 69 % 0.0 in 206.0 W/m2 CLR
12:40 10.0 °F 4.3 °F 1037.8 in North 18.5 mph 18.5 mph 68 % 0.0 in 214.0 W/m2 CLR
12:45 10.0 °F 4.3 °F 1037.8 in NW 22.2 mph 22.2 mph 68 % 0.0 in 229.0 W/m2 CLR
12:50 10.0 °F 4.2 °F 1037.8 in NNW 18.5 mph 18.5 mph 67 % 0.0 in 185.0 W/m2 CLR
12:55 10.0 °F 4.2 °F 1037.8 in NNW 20.9 mph 20.9 mph 67 % 0.0 in 232.0 W/m2 CLR
13:00 10.0 °F 4.2 °F 1037.8 in NW 22.2 mph 22.2 mph 67 % 0.0 in 225.0 W/m2 CLR
13:05 10.6 °F 4.4 °F 1037.8 in NNW 20.9 mph 20.9 mph 66 % 0.0 in 209.0 W/m2 CLR
13:10 10.6 °F 4.4 °F 1037.8 in WNW 16.7 mph 16.7 mph 66 % 0.0 in 193.0 W/m2 CLR
13:15 10.0 °F 3.9 °F 1037.8 in NW 20.4 mph 20.4 mph 66 % 0.0 in 236.0 W/m2 CLR
13:20 10.6 °F 4.2 °F 1037.8 in NW 27.8 mph 27.8 mph 65 % 0.0 in 313.0 W/m2 CLR
13:25 11.1 °F 4.8 °F 1037.8 in NW 20.4 mph 20.4 mph 65 % 0.0 in 246.0 W/m2 CLR
13:30 10.6 °F 4.2 °F 1037.5 in NW 24.1 mph 24.1 mph 65 % 0.0 in 214.0 W/m2 CLR
13:35 10.6 °F 4.0 °F 1037.5 in NNW 16.7 mph 16.7 mph 64 % 0.0 in 265.0 W/m2 CLR
13:40 10.6 °F 4.2 °F 1037.5 in NNW 18.5 mph 18.5 mph 65 % 0.0 in 202.0 W/m2 CLR
13:45 10.6 °F 4.2 °F 1037.5 in North 20.4 mph 20.4 mph 65 % 0.0 in 167.0 W/m2 CLR
13:50 10.6 °F 4.2 °F 1037.8 in NNW 24.1 mph 24.1 mph 65 % 0.0 in 153.0 W/m2 CLR
13:55 10.6 °F 4.2 °F 1037.8 in NNW 24.1 mph 24.1 mph 65 % 0.0 in 186.0 W/m2 CLR
14:00 10.6 °F 4.4 °F 1037.5 in NNW 22.2 mph 22.2 mph 66 % 0.0 in 190.0 W/m2 CLR
14:05 10.6 °F 4.4 °F 1037.5 in NW 16.7 mph 16.7 mph 66 % 0.0 in 179.0 W/m2 CLR
14:10 10.6 °F 4.4 °F 1037.5 in NNW 22.2 mph 22.2 mph 66 % 0.0 in 181.0 W/m2 CLR
14:15 10.6 °F 4.4 °F 1037.5 in NW 13.0 mph 13.0 mph 66 % 0.0 in 190.0 W/m2 CLR
14:20 10.6 °F 4.4 °F 1037.5 in North 16.7 mph 16.7 mph 66 % 0.0 in 229.0 W/m2 CLR
14:26 10.6 °F 4.2 °F 1037.5 in North 20.9 mph 20.9 mph 65 % 0.0 in 213.0 W/m2 CLR
14:31 11.1 °F 4.8 °F 1037.5 in NW 14.8 mph 14.8 mph 65 % 0.0 in 183.0 W/m2 CLR
14:36 11.1 °F 4.6 °F 1037.5 in NW 14.8 mph 14.8 mph 64 % 0.0 in 171.0 W/m2 CLR
14:41 10.6 °F 4.0 °F 1037.5 in WNW 16.7 mph 16.7 mph 64 % 0.0 in 127.0 W/m2 CLR
14:46 10.6 °F 4.2 °F 1037.5 in WNW 18.5 mph 18.5 mph 65 % 0.0 in 121.0 W/m2 CLR
14:51 10.6 °F 4.4 °F 1037.1 in North 16.7 mph 16.7 mph 66 % 0.0 in 410.0 W/m2 CLR
14:56 10.6 °F 4.2 °F 1037.1 in NNW 20.4 mph 20.4 mph 65 % 0.0 in 380.0 W/m2 CLR
15:01 11.1 °F 4.6 °F 1037.1 in NW 18.5 mph 18.5 mph 64 % 0.0 in 339.0 W/m2 CLR
15:06 11.1 °F 4.3 °F 1037.1 in NW 18.5 mph 18.5 mph 63 % 0.0 in 323.0 W/m2 CLR
15:11 11.1 °F 4.3 °F 1037.1 in NW 20.4 mph 20.4 mph 63 % 0.0 in 304.0 W/m2 CLR
15:16 11.1 °F 4.3 °F 1037.1 in WNW 19.3 mph 19.3 mph 63 % 0.0 in 306.0 W/m2 CLR
15:21 11.1 °F 4.3 °F 1037.1 in NNW 18.5 mph 18.5 mph 63 % 0.0 in 313.0 W/m2 CLR
15:26 11.1 °F 4.1 °F 1037.1 in NW 20.4 mph 20.4 mph 62 % 0.0 in 271.0 W/m2 CLR
15:31 11.1 °F 3.9 °F 1037.1 in NW 16.7 mph 16.7 mph 61 % 0.0 in 258.0 W/m2 CLR
15:36 11.1 °F 4.1 °F 1037.1 in WNW 14.8 mph 14.8 mph 62 % 0.0 in 234.0 W/m2 CLR
15:41 11.1 °F 4.1 °F 1037.1 in WNW 14.8 mph 14.8 mph 62 % 0.0 in 230.0 W/m2 CLR
15:46 11.1 °F 4.1 °F 1037.1 in WNW 16.7 mph 16.7 mph 62 % 0.0 in 213.0 W/m2 CLR
15:51 10.6 °F 3.6 °F 1037.1 in WNW 13.0 mph 13.0 mph 62 % 0.0 in 200.0 W/m2 CLR
15:56 10.6 °F 3.6 °F 1037.1 in WNW 14.8 mph 14.8 mph 62 % 0.0 in 186.0 W/m2 CLR
16:01 10.6 °F 3.3 °F 1037.1 in NW 18.5 mph 18.5 mph 61 % 0.0 in 172.0 W/m2 CLR
16:06 10.0 °F 2.8 °F 1037.1 in NW 18.5 mph 18.5 mph 61 % 0.0 in 156.0 W/m2 CLR
16:11 10.0 °F 2.8 °F 1037.1 in WNW 18.5 mph 18.5 mph 61 % 0.0 in 144.0 W/m2 CLR
16:16 10.0 °F 2.8 °F 1037.1 in NNW 17.7 mph 17.7 mph 61 % 0.0 in 130.0 W/m2 CLR
16:21 10.0 °F 2.8 °F 1037.1 in NNW 16.7 mph 16.7 mph 61 % 0.0 in 118.0 W/m2 CLR
16:26 10.0 °F 2.8 °F 1037.1 in NW 14.8 mph 14.8 mph 61 % 0.0 in 102.0 W/m2 CLR
16:31 10.0 °F 2.8 °F 1037.1 in NNW 11.3 mph 11.3 mph 61 % 0.0 in 90.0 W/m2 CLR
16:36 10.0 °F 2.8 °F 1037.1 in NW 14.8 mph 14.8 mph 61 % 0.0 in 79.0 W/m2 FEW
16:41 9.4 °F 2.3 °F 1037.1 in NW 8.0 mph 8.0 mph 61 % 0.0 in 69.0 W/m2 FEW
16:46 9.4 °F 2.3 °F 1037.1 in NW 9.3 mph 9.3 mph 61 % 0.0 in 53.0 W/m2 SCT
16:51 9.4 °F 2.3 °F 1037.1 in NW 13.0 mph 13.0 mph 61 % 0.0 in 40.0 W/m2 BKN
16:56 9.4 °F 2.3 °F 1037.1 in NW 11.1 mph 11.1 mph 61 % 0.0 in 32.0 W/m2 BKN
17:01 9.4 °F 2.3 °F 1037.1 in NNW 7.4 mph 7.4 mph 61 % 0.0 in 23.0 W/m2 BKN
17:11 8.3 °F 1.7 °F 1037.1 in WNW 11.1 mph 11.1 mph 63 % 0.0 in 12.0 W/m2 BKN
17:16 7.8 °F 1.2 °F 1037.1 in NW 5.6 mph 5.6 mph 63 % 0.0 in 11.0 W/m2 BKN
17:21 7.2 °F 0.8 °F 1037.1 in Calm     64 % 0.0 in 9.0 W/m2 BKN
17:26 6.7 °F 0.3 °F 1037.5 in Calm     64 % 0.0 in 7.0 W/m2 BKN
17:27 6.7 °F 0.3 °F 1037.5 in Calm     64 % 0.0 in 7.0 W/m2 BKN
17:32 6.1 °F 0.0 °F 1037.1 in Calm     65 % 0.0 in 5.0 W/m2 OVC
17:37 5.6 °F -0.5 °F 1037.5 in Calm     65 % 0.0 in 0.0 W/m2 OVC
17:42 5.0 °F -0.8 °F 1037.1 in Calm     66 % 0.0 in 0.0 W/m2 CLR
17:47 5.0 °F -0.6 °F 1037.1 in Calm     67 % 0.0 in 0.0 W/m2 CLR
17:53 4.4 °F -1.2 °F 1037.5 in WNW 7.4 mph 7.4 mph 67 % 0.0 in 0.0 W/m2 CLR
17:58 4.4 °F -1.2 °F 1037.5 in WNW 5.6 mph   67 % 0.0 in 0.0 W/m2 CLR
18:03 4.4 °F -1.2 °F 1037.5 in Calm     67 % 0.0 in 0.0 W/m2 CLR
18:08 3.9 °F -1.7 °F 1037.5 in Calm     67 % 0.0 in 0.0 W/m2 CLR
18:13 3.3 °F -2.0 °F 1037.5 in Calm     68 % 0.0 in 0.0 W/m2 CLR
18:18 3.3 °F -2.0 °F 1037.5 in Calm     68 % 0.0 in 0.0 W/m2 CLR
18:23 3.3 °F -1.8 °F 1037.5 in Calm     69 % 0.0 in 0.0 W/m2 CLR
18:28 3.3 °F -1.8 °F 1037.5 in Calm     69 % 0.0 in 0.0 W/m2 CLR
18:33 3.3 °F -1.2 °F 1037.5 in Calm     72 % 0.0 in 0.0 W/m2 CLR
18:38 2.8 °F -1.6 °F 1037.8 in Calm     73 % 0.0 in 0.0 W/m2 CLR
18:43 2.2 °F -1.9 °F 1037.8 in Calm     74 % 0.0 in 0.0 W/m2 CLR
18:48 1.7 °F -2.5 °F 1037.8 in Calm     74 % 0.0 in 0.0 W/m2 CLR
18:53 1.7 °F -2.3 °F 1037.8 in Calm     75 % 0.0 in 0.0 W/m2 CLR
18:58 1.1 °F -2.8 °F 1037.8 in Calm     75 % 0.0 in 0.0 W/m2 CLR
19:03 1.1 °F -2.7 °F 1037.8 in Calm     76 % 0.0 in 0.0 W/m2 CLR
19:08 0.6 °F -3.2 °F 1037.8 in Calm     76 % 0.0 in 0.0 W/m2 CLR
19:13 0.6 °F -3.0 °F 1038.1 in Calm     77 % 0.0 in 0.0 W/m2 CLR
19:18 0.0 °F -3.6 °F 1038.1 in Calm     77 % 0.0 in 0.0 W/m2 CLR
19:23 0.0 °F -3.4 °F 1038.1 in Calm     78 % 0.0 in 0.0 W/m2 CLR
19:28 0.0 °F -3.4 °F 1038.1 in Calm     78 % 0.0 in 0.0 W/m2 CLR
19:33 0.0 °F -3.2 °F 1038.1 in Calm     79 % 0.0 in 0.0 W/m2 CLR
19:38 -0.6 °F -3.9 °F 1038.1 in Calm     78 % 0.0 in 0.0 W/m2 CLR
19:43 -0.6 °F -3.9 °F 1038.5 in Calm     78 % 0.0 in 0.0 W/m2 CLR
19:48 -0.6 °F -3.8 °F 1038.5 in Calm     79 % 0.0 in 0.0 W/m2 CLR
19:53 -0.6 °F -3.6 °F 1038.5 in Calm     80 % 0.0 in 0.0 W/m2 CLR
19:58 -0.6 °F -3.6 °F 1038.5 in Calm     80 % 0.0 in 0.0 W/m2 CLR
20:03 -1.1 °F -4.1 °F 1038.5 in Calm     80 % 0.0 in 0.0 W/m2 CLR
20:08 -1.1 °F -4.1 °F 1038.5 in West 5.6 mph 5.6 mph 80 % 0.0 in 0.0 W/m2 CLR
20:13 -1.1 °F -3.9 °F 1038.5 in West 6.4 mph 6.4 mph 81 % 0.0 in 0.0 W/m2 CLR
20:18 -1.1 °F -3.9 °F 1038.5 in West 7.4 mph 7.4 mph 81 % 0.0 in 0.0 W/m2 CLR
20:23 -1.1 °F -3.9 °F 1038.8 in West 7.4 mph 7.4 mph 81 % 0.0 in 0.0 W/m2 CLR
20:28 -1.1 °F -3.9 °F 1038.8 in West 3.7 mph 3.7 mph 81 % 0.0 in 0.0 W/m2 CLR
20:33 -1.7 °F -4.3 °F 1038.8 in West 3.2 mph 3.2 mph 82 % 0.0 in 0.0 W/m2 CLR
20:38 -1.1 °F -3.8 °F 1038.8 in Calm     82 % 0.0 in 0.0 W/m2 CLR
20:43 -1.1 °F -3.9 °F 1038.8 in Calm     81 % 0.0 in 0.0 W/m2 CLR
20:48 -1.1 °F -3.9 °F 1038.8 in Calm     81 % 0.0 in 0.0 W/m2 CLR
20:53 -1.1 °F -3.9 °F 1038.8 in West 7.4 mph 7.4 mph 81 % 0.0 in 0.0 W/m2 CLR
20:58 -1.7 °F -4.5 °F 1038.8 in Calm     81 % 0.0 in 0.0 W/m2 CLR
21:03 -1.7 °F -4.7 °F 1038.8 in West 8.0 mph 8.0 mph 80 % 0.0 in 0.0 W/m2 CLR
21:08 -1.7 °F -4.5 °F 1038.8 in West 9.3 mph 9.3 mph 81 % 0.0 in 0.0 W/m2 CLR
21:13 -1.7 °F -4.5 °F 1038.8 in West 9.3 mph 9.3 mph 81 % 0.0 in 0.0 W/m2 CLR
21:18 -1.7 °F -4.5 °F 1038.8 in West 11.1 mph 11.1 mph 81 % 0.0 in 0.0 W/m2 CLR
21:23 -1.7 °F -4.3 °F 1038.8 in WSW 7.4 mph 7.4 mph 82 % 0.0 in 0.0 W/m2 CLR
21:28 -1.7 °F -4.3 °F 1038.8 in West 3.7 mph 3.7 mph 82 % 0.0 in 0.0 W/m2 CLR
21:33 -1.7 °F -4.3 °F 1038.8 in West 3.7 mph 3.7 mph 82 % 0.0 in 0.0 W/m2 CLR
21:38 -1.7 °F -4.5 °F 1039.2 in Calm     81 % 0.0 in 0.0 W/m2 CLR
21:43 -1.7 °F -4.5 °F 1039.2 in Calm     81 % 0.0 in 0.0 W/m2 CLR
21:48 -1.7 °F -4.3 °F 1039.2 in Calm     82 % 0.0 in 0.0 W/m2 CLR
21:53 -1.7 °F -4.0 °F 1039.2 in WSW 5.6 mph 5.6 mph 84 % 0.0 in 0.0 W/m2 CLR
21:58 -2.2 °F -4.6 °F 1039.2 in Calm     84 % 0.0 in 0.0 W/m2 CLR
22:03 -2.2 °F -4.7 °F 1039.2 in WSW 1.9 mph 1.9 mph 83 % 0.0 in 0.0 W/m2 CLR
22:08 -2.2 °F -4.7 °F 1039.2 in WSW 1.9 mph   83 % 0.0 in 0.0 W/m2 CLR
22:13 -2.2 °F -4.7 °F 1039.2 in Calm     83 % 0.0 in 0.0 W/m2 CLR
22:18 -2.2 °F -4.6 °F 1039.2 in Calm     84 % 0.0 in 0.0 W/m2 CLR
22:23 -2.2 °F -4.4 °F 1039.2 in Calm     85 % 0.0 in 0.0 W/m2 CLR
22:28 -2.2 °F -4.4 °F 1039.2 in Calm     85 % 0.0 in 0.0 W/m2 CLR
22:33 -2.2 °F -4.4 °F 1039.5 in Calm     85 % 0.0 in 0.0 W/m2 CLR
22:38 -2.2 °F -4.4 °F 1039.5 in Calm     85 % 0.0 in 0.0 W/m2 CLR
22:43 -2.2 °F -4.4 °F 1039.5 in Calm     85 % 0.0 in 0.0 W/m2 CLR
22:48 -2.2 °F -4.4 °F 1039.5 in Calm     85 % 0.0 in 0.0 W/m2 CLR
22:53 -2.2 °F -4.4 °F 1039.5 in Calm     85 % 0.0 in 0.0 W/m2 CLR
22:58 -2.2 °F -4.2 °F 1039.5 in Calm     86 % 0.0 in 0.0 W/m2 CLR
23:03 -2.2 °F -4.4 °F 1039.5 in WSW 3.7 mph 3.7 mph 85 % 0.0 in 0.0 W/m2 CLR
23:08 -2.2 °F -4.2 °F 1039.5 in Calm     86 % 0.0 in 0.0 W/m2 CLR
23:13 -2.2 °F -4.2 °F 1039.5 in Calm     86 % 0.0 in 0.0 W/m2 CLR
23:18 -2.2 °F -4.4 °F 1039.5 in Calm     85 % 0.0 in 0.0 W/m2 CLR
23:23 -2.2 °F -4.4 °F 1039.5 in Calm     85 % 0.0 in 0.0 W/m2 CLR
23:28 -2.2 °F -4.4 °F 1039.5 in Calm     85 % 0.0 in 0.0 W/m2 CLR
23:33 -2.2 °F -4.4 °F 1039.5 in Calm     85 % 0.0 in 0.0 W/m2 CLR
23:38 -2.2 °F -4.4 °F 1039.5 in Calm     85 % 0.0 in 0.0 W/m2 CLR
23:43 -2.2 °F -4.4 °F 1039.5 in Calm     85 % 0.0 in 0.0 W/m2 CLR
23:48 -2.2 °F -4.2 °F 1039.8 in Calm     86 % 0.0 in 0.0 W/m2 CLR
23:53 -2.2 °F -4.2 °F 1039.8 in Calm     86 % 0.0 in 0.0 W/m2 CLR
23:58 -2.2 °F -4.2 °F 1039.5 in Calm     86 % 0.0 in 0.0 W/m2 CLR
Lo Temps de Massalio
Compliments of Weather Underground - 1.25 mb